sensor_id;sensor_type;location;lat;lon;timestamp;P1;durP1;ratioP1;P2;durP2;ratioP2
40621;SDS011;26324;52.040;11.528;2023-02-23T00:01:52;6.43;;;1.52;;
40621;SDS011;26324;52.040;11.528;2023-02-23T00:04:21;5.43;;;1.95;;
40621;SDS011;26324;52.040;11.528;2023-02-23T00:06:49;8.45;;;2.22;;
40621;SDS011;26324;52.040;11.528;2023-02-23T00:09:20;7.70;;;2.35;;
40621;SDS011;26324;52.040;11.528;2023-02-23T00:11:51;7.53;;;2.17;;
40621;SDS011;26324;52.040;11.528;2023-02-23T00:14:26;4.15;;;1.85;;
40621;SDS011;26324;52.040;11.528;2023-02-23T00:16:54;3.00;;;1.58;;
40621;SDS011;26324;52.040;11.528;2023-02-23T00:19:23;6.28;;;1.70;;
40621;SDS011;26324;52.040;11.528;2023-02-23T00:21:51;6.78;;;1.80;;
40621;SDS011;26324;52.040;11.528;2023-02-23T00:24:19;4.20;;;1.75;;
40621;SDS011;26324;52.040;11.528;2023-02-23T00:26:48;6.18;;;2.22;;
40621;SDS011;26324;52.040;11.528;2023-02-23T00:29:18;7.10;;;1.80;;
40621;SDS011;26324;52.040;11.528;2023-02-23T00:31:48;7.68;;;2.67;;
40621;SDS011;26324;52.040;11.528;2023-02-23T00:34:17;9.98;;;2.55;;
40621;SDS011;26324;52.040;11.528;2023-02-23T00:36:53;5.85;;;1.67;;
40621;SDS011;26324;52.040;11.528;2023-02-23T00:39:21;7.13;;;2.40;;
40621;SDS011;26324;52.040;11.528;2023-02-23T00:41:55;5.75;;;2.42;;
40621;SDS011;26324;52.040;11.528;2023-02-23T00:44:29;8.90;;;2.05;;
40621;SDS011;26324;52.040;11.528;2023-02-23T00:46:57;5.07;;;2.05;;
40621;SDS011;26324;52.040;11.528;2023-02-23T00:49:27;6.97;;;2.10;;
40621;SDS011;26324;52.040;11.528;2023-02-23T00:51:55;6.53;;;2.28;;
40621;SDS011;26324;52.040;11.528;2023-02-23T00:54:22;4.43;;;2.20;;
40621;SDS011;26324;52.040;11.528;2023-02-23T00:56:49;5.65;;;2.25;;
40621;SDS011;26324;52.040;11.528;2023-02-23T00:59:17;4.47;;;2.28;;
40621;SDS011;26324;52.040;11.528;2023-02-23T01:01:45;8.40;;;2.08;;
40621;SDS011;26324;52.040;11.528;2023-02-23T01:04:14;5.30;;;2.20;;
40621;SDS011;26324;52.040;11.528;2023-02-23T01:06:42;7.53;;;3.05;;
40621;SDS011;26324;52.040;11.528;2023-02-23T01:09:14;4.53;;;1.85;;
40621;SDS011;26324;52.040;11.528;2023-02-23T01:11:53;5.00;;;1.85;;
40621;SDS011;26324;52.040;11.528;2023-02-23T01:16:49;4.25;;;1.73;;
40621;SDS011;26324;52.040;11.528;2023-02-23T01:19:17;5.25;;;2.40;;
40621;SDS011;26324;52.040;11.528;2023-02-23T01:21:47;5.20;;;2.05;;
40621;SDS011;26324;52.040;11.528;2023-02-23T01:24:16;5.10;;;2.40;;
40621;SDS011;26324;52.040;11.528;2023-02-23T01:26:44;4.15;;;2.33;;
40621;SDS011;26324;52.040;11.528;2023-02-23T01:29:13;8.68;;;2.85;;
40621;SDS011;26324;52.040;11.528;2023-02-23T01:31:43;4.70;;;1.95;;
40621;SDS011;26324;52.040;11.528;2023-02-23T01:34:16;4.60;;;1.90;;
40621;SDS011;26324;52.040;11.528;2023-02-23T01:36:45;3.88;;;1.75;;
40621;SDS011;26324;52.040;11.528;2023-02-23T01:39:13;3.90;;;1.73;;
40621;SDS011;26324;52.040;11.528;2023-02-23T01:41:43;4.40;;;1.98;;
40621;SDS011;26324;52.040;11.528;2023-02-23T01:46:39;6.00;;;2.17;;
40621;SDS011;26324;52.040;11.528;2023-02-23T01:49:10;4.90;;;2.40;;
40621;SDS011;26324;52.040;11.528;2023-02-23T01:51:50;5.50;;;1.85;;
40621;SDS011;26324;52.040;11.528;2023-02-23T01:54:27;2.75;;;1.75;;
40621;SDS011;26324;52.040;11.528;2023-02-23T01:59:28;7.22;;;1.85;;
40621;SDS011;26324;52.040;11.528;2023-02-23T02:02:02;6.13;;;1.80;;
40621;SDS011;26324;52.040;11.528;2023-02-23T02:04:31;4.43;;;2.17;;
40621;SDS011;26324;52.040;11.528;2023-02-23T02:07:15;4.35;;;1.80;;
40621;SDS011;26324;52.040;11.528;2023-02-23T02:09:52;5.55;;;1.73;;
40621;SDS011;26324;52.040;11.528;2023-02-23T02:12:37;8.55;;;2.70;;
40621;SDS011;26324;52.040;11.528;2023-02-23T02:15:10;8.43;;;1.63;;
40621;SDS011;26324;52.040;11.528;2023-02-23T02:17:50;4.90;;;1.92;;
40621;SDS011;26324;52.040;11.528;2023-02-23T02:23:27;3.25;;;1.60;;
40621;SDS011;26324;52.040;11.528;2023-02-23T02:31:55;9.95;;;1.98;;
40621;SDS011;26324;52.040;11.528;2023-02-23T02:37:46;6.43;;;1.80;;
40621;SDS011;26324;52.040;11.528;2023-02-23T02:44:06;3.67;;;1.75;;
40621;SDS011;26324;52.040;11.528;2023-02-23T02:46:36;11.73;;;2.35;;
40621;SDS011;26324;52.040;11.528;2023-02-23T02:52:02;4.38;;;1.75;;
40621;SDS011;26324;52.040;11.528;2023-02-23T02:54:47;6.40;;;1.98;;
40621;SDS011;26324;52.040;11.528;2023-02-23T02:57:24;5.35;;;1.48;;
40621;SDS011;26324;52.040;11.528;2023-02-23T02:59:53;5.00;;;2.25;;
40621;SDS011;26324;52.040;11.528;2023-02-23T03:02:39;6.25;;;2.30;;
40621;SDS011;26324;52.040;11.528;2023-02-23T03:05:40;5.43;;;2.55;;
40621;SDS011;26324;52.040;11.528;2023-02-23T03:08:33;3.80;;;2.45;;
40621;SDS011;26324;52.040;11.528;2023-02-23T03:11:27;6.43;;;2.17;;
40621;SDS011;26324;52.040;11.528;2023-02-23T03:14:27;8.82;;;2.05;;
40621;SDS011;26324;52.040;11.528;2023-02-23T03:26:08;3.60;;;1.52;;
40621;SDS011;26324;52.040;11.528;2023-02-23T03:29:15;3.78;;;2.03;;
40621;SDS011;26324;52.040;11.528;2023-02-23T03:32:21;3.33;;;1.75;;
40621;SDS011;26324;52.040;11.528;2023-02-23T03:35:21;4.68;;;1.77;;
40621;SDS011;26324;52.040;11.528;2023-02-23T03:41:27;2.80;;;0.98;;
40621;SDS011;26324;52.040;11.528;2023-02-23T03:44:36;2.55;;;1.65;;
40621;SDS011;26324;52.040;11.528;2023-02-23T03:47:26;2.25;;;1.30;;
40621;SDS011;26324;52.040;11.528;2023-02-23T03:50:19;6.00;;;2.42;;
40621;SDS011;26324;52.040;11.528;2023-02-23T03:53:16;8.13;;;2.10;;
40621;SDS011;26324;52.040;11.528;2023-02-23T03:56:08;9.30;;;2.17;;
40621;SDS011;26324;52.040;11.528;2023-02-23T03:58:57;10.27;;;2.47;;
40621;SDS011;26324;52.040;11.528;2023-02-23T04:01:45;11.10;;;2.25;;
40621;SDS011;26324;52.040;11.528;2023-02-23T04:04:36;8.35;;;2.60;;
40621;SDS011;26324;52.040;11.528;2023-02-23T04:07:24;3.50;;;2.08;;
40621;SDS011;26324;52.040;11.528;2023-02-23T04:13:42;8.00;;;2.83;;
40621;SDS011;26324;52.040;11.528;2023-02-23T04:16:14;9.27;;;2.70;;
40621;SDS011;26324;52.040;11.528;2023-02-23T04:18:43;7.97;;;3.28;;
40621;SDS011;26324;52.040;11.528;2023-02-23T04:21:11;8.50;;;3.13;;
40621;SDS011;26324;52.040;11.528;2023-02-23T04:23:39;6.28;;;2.38;;
40621;SDS011;26324;52.040;11.528;2023-02-23T04:26:19;3.10;;;2.05;;
40621;SDS011;26324;52.040;11.528;2023-02-23T04:28:48;4.68;;;2.13;;
40621;SDS011;26324;52.040;11.528;2023-02-23T04:31:19;8.05;;;2.33;;
40621;SDS011;26324;52.040;11.528;2023-02-23T04:33:50;4.95;;;2.53;;
40621;SDS011;26324;52.040;11.528;2023-02-23T04:36:17;6.60;;;2.65;;
40621;SDS011;26324;52.040;11.528;2023-02-23T04:38:44;5.47;;;2.55;;
40621;SDS011;26324;52.040;11.528;2023-02-23T04:41:23;8.02;;;2.40;;
40621;SDS011;26324;52.040;11.528;2023-02-23T04:43:51;8.63;;;1.98;;
40621;SDS011;26324;52.040;11.528;2023-02-23T04:46:18;5.28;;;2.58;;
40621;SDS011;26324;52.040;11.528;2023-02-23T04:48:45;8.02;;;2.53;;
40621;SDS011;26324;52.040;11.528;2023-02-23T04:51:13;3.67;;;1.77;;
40621;SDS011;26324;52.040;11.528;2023-02-23T04:53:40;5.22;;;1.90;;
40621;SDS011;26324;52.040;11.528;2023-02-23T04:56:07;4.10;;;2.53;;
40621;SDS011;26324;52.040;11.528;2023-02-23T04:58:34;6.15;;;2.58;;
40621;SDS011;26324;52.040;11.528;2023-02-23T05:01:05;4.45;;;2.30;;
40621;SDS011;26324;52.040;11.528;2023-02-23T05:03:35;5.30;;;2.13;;
40621;SDS011;26324;52.040;11.528;2023-02-23T05:06:02;3.25;;;2.13;;
40621;SDS011;26324;52.040;11.528;2023-02-23T05:08:29;7.45;;;2.50;;
40621;SDS011;26324;52.040;11.528;2023-02-23T05:10:57;5.13;;;2.10;;
40621;SDS011;26324;52.040;11.528;2023-02-23T05:13:24;6.60;;;3.17;;
40621;SDS011;26324;52.040;11.528;2023-02-23T05:15:54;2.80;;;1.90;;
40621;SDS011;26324;52.040;11.528;2023-02-23T05:18:27;5.57;;;2.55;;
40621;SDS011;26324;52.040;11.528;2023-02-23T05:21:00;8.40;;;2.63;;
40621;SDS011;26324;52.040;11.528;2023-02-23T05:23:29;4.13;;;1.98;;
40621;SDS011;26324;52.040;11.528;2023-02-23T05:26:01;6.78;;;2.47;;
40621;SDS011;26324;52.040;11.528;2023-02-23T05:28:33;6.70;;;2.75;;
40621;SDS011;26324;52.040;11.528;2023-02-23T05:31:04;6.13;;;2.58;;
40621;SDS011;26324;52.040;11.528;2023-02-23T05:33:32;5.97;;;2.42;;
40621;SDS011;26324;52.040;11.528;2023-02-23T05:36:03;8.93;;;2.95;;
40621;SDS011;26324;52.040;11.528;2023-02-23T05:38:31;7.82;;;3.25;;
40621;SDS011;26324;52.040;11.528;2023-02-23T05:40:58;9.25;;;3.08;;
40621;SDS011;26324;52.040;11.528;2023-02-23T05:43:31;3.90;;;2.40;;
40621;SDS011;26324;52.040;11.528;2023-02-23T05:46:12;7.07;;;2.92;;
40621;SDS011;26324;52.040;11.528;2023-02-23T05:48:42;4.97;;;2.42;;
40621;SDS011;26324;52.040;11.528;2023-02-23T05:51:13;5.47;;;2.63;;
40621;SDS011;26324;52.040;11.528;2023-02-23T05:53:42;6.38;;;3.13;;
40621;SDS011;26324;52.040;11.528;2023-02-23T05:56:11;4.78;;;2.17;;
40621;SDS011;26324;52.040;11.528;2023-02-23T06:01:39;7.45;;;3.45;;
40621;SDS011;26324;52.040;11.528;2023-02-23T06:04:07;5.93;;;3.15;;
40621;SDS011;26324;52.040;11.528;2023-02-23T06:06:34;19.67;;;4.22;;
40621;SDS011;26324;52.040;11.528;2023-02-23T06:09:02;12.02;;;3.67;;
40621;SDS011;26324;52.040;11.528;2023-02-23T06:11:46;9.13;;;3.15;;
40621;SDS011;26324;52.040;11.528;2023-02-23T06:14:14;6.80;;;2.70;;
40621;SDS011;26324;52.040;11.528;2023-02-23T06:16:42;8.48;;;3.13;;
40621;SDS011;26324;52.040;11.528;2023-02-23T06:19:11;7.72;;;3.28;;
40621;SDS011;26324;52.040;11.528;2023-02-23T06:21:38;8.43;;;3.47;;
40621;SDS011;26324;52.040;11.528;2023-02-23T06:24:06;7.15;;;2.92;;
40621;SDS011;26324;52.040;11.528;2023-02-23T06:26:37;6.82;;;3.38;;
40621;SDS011;26324;52.040;11.528;2023-02-23T06:29:07;6.43;;;2.90;;
40621;SDS011;26324;52.040;11.528;2023-02-23T06:31:34;7.40;;;2.90;;
40621;SDS011;26324;52.040;11.528;2023-02-23T06:36:55;6.95;;;3.33;;
40621;SDS011;26324;52.040;11.528;2023-02-23T06:39:22;8.05;;;3.17;;
40621;SDS011;26324;52.040;11.528;2023-02-23T06:41:49;6.25;;;3.08;;
40621;SDS011;26324;52.040;11.528;2023-02-23T06:44:17;7.68;;;3.75;;
40621;SDS011;26324;52.040;11.528;2023-02-23T06:46:44;6.55;;;3.97;;
40621;SDS011;26324;52.040;11.528;2023-02-23T06:49:12;4.78;;;2.80;;
40621;SDS011;26324;52.040;11.528;2023-02-23T06:51:48;7.82;;;3.22;;
40621;SDS011;26324;52.040;11.528;2023-02-23T06:54:17;8.15;;;3.63;;
40621;SDS011;26324;52.040;11.528;2023-02-23T06:59:15;7.25;;;3.40;;
40621;SDS011;26324;52.040;11.528;2023-02-23T07:01:43;8.07;;;3.00;;
40621;SDS011;26324;52.040;11.528;2023-02-23T07:04:12;7.97;;;3.90;;
40621;SDS011;26324;52.040;11.528;2023-02-23T07:06:42;8.45;;;4.35;;
40621;SDS011;26324;52.040;11.528;2023-02-23T07:09:10;8.48;;;4.05;;
40621;SDS011;26324;52.040;11.528;2023-02-23T07:11:38;8.70;;;4.20;;
40621;SDS011;26324;52.040;11.528;2023-02-23T07:14:08;13.32;;;4.38;;
40621;SDS011;26324;52.040;11.528;2023-02-23T07:16:43;9.05;;;4.60;;
40621;SDS011;26324;52.040;11.528;2023-02-23T07:19:11;12.60;;;4.60;;
40621;SDS011;26324;52.040;11.528;2023-02-23T07:21:38;13.55;;;4.72;;
40621;SDS011;26324;52.040;11.528;2023-02-23T07:24:05;12.48;;;4.63;;
40621;SDS011;26324;52.040;11.528;2023-02-23T07:26:33;10.73;;;4.55;;
40621;SDS011;26324;52.040;11.528;2023-02-23T07:29:01;9.07;;;5.22;;
40621;SDS011;26324;52.040;11.528;2023-02-23T07:31:29;10.68;;;4.00;;
40621;SDS011;26324;52.040;11.528;2023-02-23T07:33:56;11.93;;;4.63;;
40621;SDS011;26324;52.040;11.528;2023-02-23T07:36:23;15.68;;;5.68;;
40621;SDS011;26324;52.040;11.528;2023-02-23T07:38:50;13.93;;;5.47;;
40621;SDS011;26324;52.040;11.528;2023-02-23T07:41:18;11.13;;;5.45;;
40621;SDS011;26324;52.040;11.528;2023-02-23T07:43:45;12.48;;;5.60;;
40621;SDS011;26324;52.040;11.528;2023-02-23T07:46:13;14.48;;;5.55;;
40621;SDS011;26324;52.040;11.528;2023-02-23T07:48:41;10.50;;;4.22;;
40621;SDS011;26324;52.040;11.528;2023-02-23T07:51:14;11.90;;;4.93;;
40621;SDS011;26324;52.040;11.528;2023-02-23T07:53:43;12.20;;;5.13;;
40621;SDS011;26324;52.040;11.528;2023-02-23T07:56:11;10.63;;;5.32;;
40621;SDS011;26324;52.040;11.528;2023-02-23T07:58:39;13.23;;;5.03;;
40621;SDS011;26324;52.040;11.528;2023-02-23T08:01:09;11.68;;;5.53;;
40621;SDS011;26324;52.040;11.528;2023-02-23T08:03:37;14.60;;;5.93;;
40621;SDS011;26324;52.040;11.528;2023-02-23T08:06:05;10.60;;;4.63;;
40621;SDS011;26324;52.040;11.528;2023-02-23T08:08:32;17.90;;;6.32;;
40621;SDS011;26324;52.040;11.528;2023-02-23T08:11:01;13.88;;;6.55;;
40621;SDS011;26324;52.040;11.528;2023-02-23T08:13:31;15.90;;;5.78;;
40621;SDS011;26324;52.040;11.528;2023-02-23T08:15:58;17.17;;;6.82;;
40621;SDS011;26324;52.040;11.528;2023-02-23T08:18:25;17.20;;;6.55;;
40621;SDS011;26324;52.040;11.528;2023-02-23T08:20:57;19.35;;;7.45;;
40621;SDS011;26324;52.040;11.528;2023-02-23T08:23:32;16.15;;;6.55;;
40621;SDS011;26324;52.040;11.528;2023-02-23T08:26:00;16.27;;;7.05;;
40621;SDS011;26324;52.040;11.528;2023-02-23T08:28:28;16.90;;;6.88;;
40621;SDS011;26324;52.040;11.528;2023-02-23T08:30:56;15.38;;;6.38;;
40621;SDS011;26324;52.040;11.528;2023-02-23T08:33:25;18.55;;;6.75;;
40621;SDS011;26324;52.040;11.528;2023-02-23T08:35:52;18.08;;;7.38;;
40621;SDS011;26324;52.040;11.528;2023-02-23T08:38:19;13.77;;;6.55;;
40621;SDS011;26324;52.040;11.528;2023-02-23T08:40:47;12.55;;;6.70;;
40621;SDS011;26324;52.040;11.528;2023-02-23T08:43:15;18.52;;;7.05;;
40621;SDS011;26324;52.040;11.528;2023-02-23T08:45:42;19.08;;;8.05;;
40621;SDS011;26324;52.040;11.528;2023-02-23T08:48:13;17.27;;;6.75;;
40621;SDS011;26324;52.040;11.528;2023-02-23T08:50:41;15.40;;;7.75;;
40621;SDS011;26324;52.040;11.528;2023-02-23T08:53:08;18.65;;;7.72;;
40621;SDS011;26324;52.040;11.528;2023-02-23T08:55:36;18.92;;;8.95;;
40621;SDS011;26324;52.040;11.528;2023-02-23T08:58:04;19.58;;;8.32;;
40621;SDS011;26324;52.040;11.528;2023-02-23T09:00:37;16.95;;;7.43;;
40621;SDS011;26324;52.040;11.528;2023-02-23T09:03:19;21.48;;;8.95;;
40621;SDS011;26324;52.040;11.528;2023-02-23T09:05:47;17.55;;;8.40;;
40621;SDS011;26324;52.040;11.528;2023-02-23T09:08:15;24.02;;;10.35;;
40621;SDS011;26324;52.040;11.528;2023-02-23T09:10:43;21.90;;;9.05;;
40621;SDS011;26324;52.040;11.528;2023-02-23T09:13:10;25.42;;;10.05;;
40621;SDS011;26324;52.040;11.528;2023-02-23T09:15:38;24.27;;;10.50;;
40621;SDS011;26324;52.040;11.528;2023-02-23T09:18:07;19.50;;;9.63;;
40621;SDS011;26324;52.040;11.528;2023-02-23T09:20:36;24.58;;;10.50;;
40621;SDS011;26324;52.040;11.528;2023-02-23T09:23:13;25.40;;;9.95;;
40621;SDS011;26324;52.040;11.528;2023-02-23T09:25:41;27.67;;;11.07;;
40621;SDS011;26324;52.040;11.528;2023-02-23T09:28:13;20.92;;;9.18;;
40621;SDS011;26324;52.040;11.528;2023-02-23T09:30:42;25.45;;;9.25;;
40621;SDS011;26324;52.040;11.528;2023-02-23T09:33:12;23.90;;;9.60;;
40621;SDS011;26324;52.040;11.528;2023-02-23T09:35:39;25.10;;;9.35;;
40621;SDS011;26324;52.040;11.528;2023-02-23T09:38:07;22.08;;;9.27;;
40621;SDS011;26324;52.040;11.528;2023-02-23T09:43:10;26.42;;;10.13;;
40621;SDS011;26324;52.040;11.528;2023-02-23T09:45:52;25.85;;;10.85;;
40621;SDS011;26324;52.040;11.528;2023-02-23T09:48:21;23.58;;;10.77;;
40621;SDS011;26324;52.040;11.528;2023-02-23T09:50:52;25.63;;;11.77;;
40621;SDS011;26324;52.040;11.528;2023-02-23T09:56:35;32.13;;;14.20;;
40621;SDS011;26324;52.040;11.528;2023-02-23T09:59:06;35.45;;;15.32;;
40621;SDS011;26324;52.040;11.528;2023-02-23T10:04:37;44.40;;;17.08;;
40621;SDS011;26324;52.040;11.528;2023-02-23T10:07:21;40.25;;;16.75;;
40621;SDS011;26324;52.040;11.528;2023-02-23T10:10:06;32.78;;;14.27;;
40621;SDS011;26324;52.040;11.528;2023-02-23T10:20:56;29.08;;;11.30;;
40621;SDS011;26324;52.040;11.528;2023-02-23T10:23:30;34.40;;;14.23;;
40621;SDS011;26324;52.040;11.528;2023-02-23T10:26:06;30.17;;;13.57;;
40621;SDS011;26324;52.040;11.528;2023-02-23T10:28:41;32.15;;;14.45;;
40621;SDS011;26324;52.040;11.528;2023-02-23T10:31:23;27.85;;;12.73;;
40621;SDS011;26324;52.040;11.528;2023-02-23T10:34:22;27.90;;;11.73;;
40621;SDS011;26324;52.040;11.528;2023-02-23T10:36:59;27.00;;;12.43;;
40621;SDS011;26324;52.040;11.528;2023-02-23T10:39:32;34.83;;;13.85;;
40621;SDS011;26324;52.040;11.528;2023-02-23T10:42:04;32.10;;;13.85;;
40621;SDS011;26324;52.040;11.528;2023-02-23T10:44:38;39.17;;;15.00;;
40621;SDS011;26324;52.040;11.528;2023-02-23T10:47:14;30.75;;;14.73;;
40621;SDS011;26324;52.040;11.528;2023-02-23T10:49:46;32.75;;;14.07;;
40621;SDS011;26324;52.040;11.528;2023-02-23T10:52:17;38.85;;;16.67;;
40621;SDS011;26324;52.040;11.528;2023-02-23T10:54:50;34.55;;;15.48;;
40621;SDS011;26324;52.040;11.528;2023-02-23T10:57:19;41.78;;;16.63;;
40621;SDS011;26324;52.040;11.528;2023-02-23T11:02:43;42.33;;;15.20;;
40621;SDS011;26324;52.040;11.528;2023-02-23T11:05:31;40.10;;;15.07;;
40621;SDS011;26324;52.040;11.528;2023-02-23T11:08:17;39.53;;;16.25;;
40621;SDS011;26324;52.040;11.528;2023-02-23T11:13:25;39.15;;;16.45;;
40621;SDS011;26324;52.040;11.528;2023-02-23T11:15:58;42.33;;;16.38;;
40621;SDS011;26324;52.040;11.528;2023-02-23T11:18:32;43.05;;;15.95;;
40621;SDS011;26324;52.040;11.528;2023-02-23T11:20:59;39.28;;;16.45;;
40621;SDS011;26324;52.040;11.528;2023-02-23T11:23:33;34.55;;;14.88;;
40621;SDS011;26324;52.040;11.528;2023-02-23T11:26:03;41.00;;;17.27;;
40621;SDS011;26324;52.040;11.528;2023-02-23T11:28:52;43.80;;;17.38;;
40621;SDS011;26324;52.040;11.528;2023-02-23T11:31:30;37.83;;;15.50;;
40621;SDS011;26324;52.040;11.528;2023-02-23T11:34:04;40.42;;;16.48;;
40621;SDS011;26324;52.040;11.528;2023-02-23T11:36:33;44.78;;;16.42;;
40621;SDS011;26324;52.040;11.528;2023-02-23T11:41:29;38.47;;;16.23;;
40621;SDS011;26324;52.040;11.528;2023-02-23T11:46:30;42.55;;;17.48;;
40621;SDS011;26324;52.040;11.528;2023-02-23T11:48:59;41.40;;;16.48;;
40621;SDS011;26324;52.040;11.528;2023-02-23T11:51:35;44.80;;;17.23;;
40621;SDS011;26324;52.040;11.528;2023-02-23T11:54:06;43.47;;;18.90;;
40621;SDS011;26324;52.040;11.528;2023-02-23T11:56:42;40.67;;;16.33;;
40621;SDS011;26324;52.040;11.528;2023-02-23T11:59:17;43.13;;;15.95;;
40621;SDS011;26324;52.040;11.528;2023-02-23T12:01:51;42.80;;;16.20;;
40621;SDS011;26324;52.040;11.528;2023-02-23T12:04:33;43.83;;;17.30;;
40621;SDS011;26324;52.040;11.528;2023-02-23T12:13:29;49.40;;;18.33;;
40621;SDS011;26324;52.040;11.528;2023-02-23T12:16:23;49.45;;;16.70;;
40621;SDS011;26324;52.040;11.528;2023-02-23T12:22:00;46.20;;;17.52;;
40621;SDS011;26324;52.040;11.528;2023-02-23T12:24:47;57.17;;;19.80;;
40621;SDS011;26324;52.040;11.528;2023-02-23T12:27:28;42.63;;;16.30;;
40621;SDS011;26324;52.040;11.528;2023-02-23T12:30:17;44.55;;;17.40;;
40621;SDS011;26324;52.040;11.528;2023-02-23T12:32:58;45.50;;;17.38;;
40621;SDS011;26324;52.040;11.528;2023-02-23T12:35:45;48.17;;;19.52;;
40621;SDS011;26324;52.040;11.528;2023-02-23T12:38:18;44.08;;;17.92;;
40621;SDS011;26324;52.040;11.528;2023-02-23T12:41:00;54.67;;;17.63;;
40621;SDS011;26324;52.040;11.528;2023-02-23T12:43:45;47.28;;;17.13;;
40621;SDS011;26324;52.040;11.528;2023-02-23T12:46:18;47.63;;;19.70;;
40621;SDS011;26324;52.040;11.528;2023-02-23T12:48:55;42.50;;;16.15;;
40621;SDS011;26324;52.040;11.528;2023-02-23T12:51:39;48.53;;;17.80;;
40621;SDS011;26324;52.040;11.528;2023-02-23T12:54:14;47.35;;;17.98;;
40621;SDS011;26324;52.040;11.528;2023-02-23T13:01:59;46.33;;;15.38;;
40621;SDS011;26324;52.040;11.528;2023-02-23T13:07:23;36.35;;;13.98;;
40621;SDS011;26324;52.040;11.528;2023-02-23T13:10:49;40.97;;;15.10;;
40621;SDS011;26324;52.040;11.528;2023-02-23T13:13:40;40.03;;;16.48;;
40621;SDS011;26324;52.040;11.528;2023-02-23T13:19:08;43.53;;;16.33;;
40621;SDS011;26324;52.040;11.528;2023-02-23T13:27:56;42.92;;;15.90;;
40621;SDS011;26324;52.040;11.528;2023-02-23T13:30:26;42.10;;;16.27;;
40621;SDS011;26324;52.040;11.528;2023-02-23T13:32:58;39.22;;;15.48;;
40621;SDS011;26324;52.040;11.528;2023-02-23T13:35:30;43.60;;;15.65;;
40621;SDS011;26324;52.040;11.528;2023-02-23T13:40:58;47.47;;;17.35;;
40621;SDS011;26324;52.040;11.528;2023-02-23T13:43:48;41.50;;;16.38;;
40621;SDS011;26324;52.040;11.528;2023-02-23T13:46:27;46.20;;;17.65;;
40621;SDS011;26324;52.040;11.528;2023-02-23T13:49:19;43.38;;;17.02;;
40621;SDS011;26324;52.040;11.528;2023-02-23T13:51:54;40.78;;;15.02;;
40621;SDS011;26324;52.040;11.528;2023-02-23T13:56:59;42.20;;;16.20;;
40621;SDS011;26324;52.040;11.528;2023-02-23T13:59:35;49.88;;;17.00;;
40621;SDS011;26324;52.040;11.528;2023-02-23T14:05:05;48.80;;;17.70;;
40621;SDS011;26324;52.040;11.528;2023-02-23T14:07:43;39.00;;;15.52;;
40621;SDS011;26324;52.040;11.528;2023-02-23T14:15:46;41.85;;;15.93;;
40621;SDS011;26324;52.040;11.528;2023-02-23T14:23:48;40.72;;;14.95;;
40621;SDS011;26324;52.040;11.528;2023-02-23T14:29:09;43.53;;;16.33;;
40621;SDS011;26324;52.040;11.528;2023-02-23T14:31:57;43.72;;;17.63;;
40621;SDS011;26324;52.040;11.528;2023-02-23T14:42:40;41.15;;;16.45;;
40621;SDS011;26324;52.040;11.528;2023-02-23T14:45:20;43.92;;;15.30;;
40621;SDS011;26324;52.040;11.528;2023-02-23T14:47:56;37.30;;;14.95;;
40621;SDS011;26324;52.040;11.528;2023-02-23T14:50:29;40.33;;;16.20;;
40621;SDS011;26324;52.040;11.528;2023-02-23T14:52:59;39.30;;;14.98;;
40621;SDS011;26324;52.040;11.528;2023-02-23T14:55:29;36.67;;;15.50;;
40621;SDS011;26324;52.040;11.528;2023-02-23T14:57:58;39.28;;;16.13;;
40621;SDS011;26324;52.040;11.528;2023-02-23T15:00:31;33.88;;;13.98;;
40621;SDS011;26324;52.040;11.528;2023-02-23T15:03:07;33.38;;;14.15;;
40621;SDS011;26324;52.040;11.528;2023-02-23T15:05:42;32.53;;;13.38;;
40621;SDS011;26324;52.040;11.528;2023-02-23T15:08:13;36.33;;;14.73;;
40621;SDS011;26324;52.040;11.528;2023-02-23T15:10:44;32.22;;;13.55;;
40621;SDS011;26324;52.040;11.528;2023-02-23T15:13:26;31.77;;;13.27;;
40621;SDS011;26324;52.040;11.528;2023-02-23T15:16:06;31.80;;;12.43;;
40621;SDS011;26324;52.040;11.528;2023-02-23T15:21:58;26.90;;;12.45;;
40621;SDS011;26324;52.040;11.528;2023-02-23T15:24:30;30.38;;;12.70;;
40621;SDS011;26324;52.040;11.528;2023-02-23T15:27:20;31.38;;;12.23;;
40621;SDS011;26324;52.040;11.528;2023-02-23T15:29:51;29.90;;;10.93;;
40621;SDS011;26324;52.040;11.528;2023-02-23T15:32:22;29.00;;;12.02;;
40621;SDS011;26324;52.040;11.528;2023-02-23T15:34:51;30.80;;;11.75;;
40621;SDS011;26324;52.040;11.528;2023-02-23T15:40:05;23.00;;;10.90;;
40621;SDS011;26324;52.040;11.528;2023-02-23T15:42:47;31.42;;;12.68;;
40621;SDS011;26324;52.040;11.528;2023-02-23T15:47:57;22.92;;;10.52;;
40621;SDS011;26324;52.040;11.528;2023-02-23T15:50:39;31.02;;;13.43;;
40621;SDS011;26324;52.040;11.528;2023-02-23T15:53:12;35.38;;;16.85;;
40621;SDS011;26324;52.040;11.528;2023-02-23T15:55:57;39.40;;;17.70;;
40621;SDS011;26324;52.040;11.528;2023-02-23T15:58:31;39.72;;;16.20;;
40621;SDS011;26324;52.040;11.528;2023-02-23T16:01:21;31.08;;;11.80;;
40621;SDS011;26324;52.040;11.528;2023-02-23T16:03:59;24.63;;;11.05;;
40621;SDS011;26324;52.040;11.528;2023-02-23T16:06:32;23.10;;;10.52;;
40621;SDS011;26324;52.040;11.528;2023-02-23T16:09:10;23.80;;;10.25;;
40621;SDS011;26324;52.040;11.528;2023-02-23T16:11:50;24.33;;;11.32;;
40621;SDS011;26324;52.040;11.528;2023-02-23T16:14:18;21.88;;;10.60;;
40621;SDS011;26324;52.040;11.528;2023-02-23T16:16:48;27.48;;;12.15;;
40621;SDS011;26324;52.040;11.528;2023-02-23T16:19:36;23.23;;;9.88;;
40621;SDS011;26324;52.040;11.528;2023-02-23T16:22:10;30.08;;;11.90;;
40621;SDS011;26324;52.040;11.528;2023-02-23T16:24:47;22.52;;;9.77;;
40621;SDS011;26324;52.040;11.528;2023-02-23T16:27:26;26.48;;;11.43;;
40621;SDS011;26324;52.040;11.528;2023-02-23T16:29:59;23.48;;;11.52;;
40621;SDS011;26324;52.040;11.528;2023-02-23T16:32:42;18.83;;;9.77;;
40621;SDS011;26324;52.040;11.528;2023-02-23T16:35:17;26.42;;;9.15;;
40621;SDS011;26324;52.040;11.528;2023-02-23T16:37:49;24.25;;;10.80;;
40621;SDS011;26324;52.040;11.528;2023-02-23T16:40:23;22.05;;;9.57;;
40621;SDS011;26324;52.040;11.528;2023-02-23T16:42:51;32.03;;;14.23;;
40621;SDS011;26324;52.040;11.528;2023-02-23T16:45:20;26.85;;;12.38;;
40621;SDS011;26324;52.040;11.528;2023-02-23T16:47:47;28.88;;;12.60;;
40621;SDS011;26324;52.040;11.528;2023-02-23T16:50:20;32.20;;;12.95;;
40621;SDS011;26324;52.040;11.528;2023-02-23T16:52:50;39.97;;;16.98;;
40621;SDS011;26324;52.040;11.528;2023-02-23T16:55:20;40.50;;;15.90;;
40621;SDS011;26324;52.040;11.528;2023-02-23T16:58:00;42.38;;;16.52;;
40621;SDS011;26324;52.040;11.528;2023-02-23T17:00:30;30.02;;;12.20;;
40621;SDS011;26324;52.040;11.528;2023-02-23T17:02:58;37.55;;;15.98;;
40621;SDS011;26324;52.040;11.528;2023-02-23T17:05:32;32.60;;;14.95;;
40621;SDS011;26324;52.040;11.528;2023-02-23T17:08:02;34.03;;;13.75;;
40621;SDS011;26324;52.040;11.528;2023-02-23T17:10:31;31.55;;;12.20;;
40621;SDS011;26324;52.040;11.528;2023-02-23T17:13:02;32.20;;;15.02;;
40621;SDS011;26324;52.040;11.528;2023-02-23T17:15:32;26.23;;;11.20;;
40621;SDS011;26324;52.040;11.528;2023-02-23T17:18:05;27.98;;;12.10;;
40621;SDS011;26324;52.040;11.528;2023-02-23T17:23:30;29.50;;;10.52;;
40621;SDS011;26324;52.040;11.528;2023-02-23T17:26:08;26.58;;;13.63;;